sensor_id;sensor_type;location;lat;lon;timestamp;temperature;humidity
20358;DHT22;75325;47.812;13.026;2024-03-17T00:01:16;13.90;53.80
20358;DHT22;75325;47.812;13.026;2024-03-17T00:03:43;13.80;53.80
20358;DHT22;75325;47.812;13.026;2024-03-17T00:06:09;13.80;54.00
20358;DHT22;75325;47.812;13.026;2024-03-17T00:08:38;13.80;54.00
20358;DHT22;75325;47.812;13.026;2024-03-17T00:11:04;13.70;54.10
20358;DHT22;75325;47.812;13.026;2024-03-17T00:13:32;13.70;54.20
20358;DHT22;75325;47.812;13.026;2024-03-17T00:15:58;13.60;54.10
20358;DHT22;75325;47.812;13.026;2024-03-17T00:18:25;13.60;54.20
20358;DHT22;75325;47.812;13.026;2024-03-17T00:20:54;13.60;54.20
20358;DHT22;75325;47.812;13.026;2024-03-17T00:23:21;13.60;54.30
20358;DHT22;75325;47.812;13.026;2024-03-17T00:25:49;13.50;54.30
20358;DHT22;75325;47.812;13.026;2024-03-17T00:28:17;13.60;54.40
20358;DHT22;75325;47.812;13.026;2024-03-17T00:30:43;13.60;55.00
20358;DHT22;75325;47.812;13.026;2024-03-17T00:33:12;13.60;54.40
20358;DHT22;75325;47.812;13.026;2024-03-17T00:35:40;13.70;54.50
20358;DHT22;75325;47.812;13.026;2024-03-17T00:38:07;13.70;54.50
20358;DHT22;75325;47.812;13.026;2024-03-17T00:40:36;13.80;54.50
20358;DHT22;75325;47.812;13.026;2024-03-17T00:43:05;13.80;54.50
20358;DHT22;75325;47.812;13.026;2024-03-17T00:45:31;13.90;55.10
20358;DHT22;75325;47.812;13.026;2024-03-17T00:47:59;13.90;54.50
20358;DHT22;75325;47.812;13.026;2024-03-17T00:50:25;13.90;54.40
20358;DHT22;75325;47.812;13.026;2024-03-17T00:52:52;13.90;54.40
20358;DHT22;75325;47.812;13.026;2024-03-17T00:55:18;13.90;54.40
20358;DHT22;75325;47.812;13.026;2024-03-17T00:57:46;13.90;54.50
20358;DHT22;75325;47.812;13.026;2024-03-17T01:00:14;13.90;54.50
20358;DHT22;75325;47.812;13.026;2024-03-17T01:02:42;13.90;54.60
20358;DHT22;75325;47.812;13.026;2024-03-17T01:05:08;13.90;55.20
20358;DHT22;75325;47.812;13.026;2024-03-17T01:07:36;13.90;54.60
20358;DHT22;75325;47.812;13.026;2024-03-17T01:10:03;13.90;54.60
20358;DHT22;75325;47.812;13.026;2024-03-17T01:12:34;13.90;54.60
20358;DHT22;75325;47.812;13.026;2024-03-17T01:15:02;13.90;54.70
20358;DHT22;75325;47.812;13.026;2024-03-17T01:17:31;13.90;54.70
20358;DHT22;75325;47.812;13.026;2024-03-17T01:19:58;13.90;54.80
20358;DHT22;75325;47.812;13.026;2024-03-17T01:22:25;13.90;54.70
20358;DHT22;75325;47.812;13.026;2024-03-17T01:24:51;13.90;54.80
20358;DHT22;75325;47.812;13.026;2024-03-17T01:27:20;13.90;55.00
20358;DHT22;75325;47.812;13.026;2024-03-17T01:29:46;13.90;54.80
20358;DHT22;75325;47.812;13.026;2024-03-17T01:32:14;13.80;54.80
20358;DHT22;75325;47.812;13.026;2024-03-17T01:34:42;13.90;54.90
20358;DHT22;75325;47.812;13.026;2024-03-17T01:37:09;13.90;54.90
20358;DHT22;75325;47.812;13.026;2024-03-17T01:39:36;13.80;54.70
20358;DHT22;75325;47.812;13.026;2024-03-17T01:42:03;13.70;54.80
20358;DHT22;75325;47.812;13.026;2024-03-17T01:44:30;13.70;54.80
20358;DHT22;75325;47.812;13.026;2024-03-17T01:46:57;13.70;54.90
20358;DHT22;75325;47.812;13.026;2024-03-17T01:49:26;13.70;54.90
20358;DHT22;75325;47.812;13.026;2024-03-17T01:51:55;13.70;55.00
20358;DHT22;75325;47.812;13.026;2024-03-17T01:54:22;13.70;55.00
20358;DHT22;75325;47.812;13.026;2024-03-17T01:56:49;13.70;55.00
20358;DHT22;75325;47.812;13.026;2024-03-17T01:59:16;13.60;54.90
20358;DHT22;75325;47.812;13.026;2024-03-17T02:01:43;13.60;55.30
20358;DHT22;75325;47.812;13.026;2024-03-17T02:04:10;13.60;55.10
20358;DHT22;75325;47.812;13.026;2024-03-17T02:06:37;13.60;55.00
20358;DHT22;75325;47.812;13.026;2024-03-17T02:09:06;13.60;55.00
20358;DHT22;75325;47.812;13.026;2024-03-17T02:11:33;13.60;55.00
20358;DHT22;75325;47.812;13.026;2024-03-17T02:14:02;13.60;55.70
20358;DHT22;75325;47.812;13.026;2024-03-17T02:16:28;13.60;55.20
20358;DHT22;75325;47.812;13.026;2024-03-17T02:18:56;13.60;55.20
20358;DHT22;75325;47.812;13.026;2024-03-17T02:21:23;13.60;55.20
20358;DHT22;75325;47.812;13.026;2024-03-17T02:23:52;13.60;55.10
20358;DHT22;75325;47.812;13.026;2024-03-17T02:26:20;13.60;55.70
20358;DHT22;75325;47.812;13.026;2024-03-17T02:28:47;13.60;55.10
20358;DHT22;75325;47.812;13.026;2024-03-17T02:31:15;13.60;55.20
20358;DHT22;75325;47.812;13.026;2024-03-17T02:33:42;13.60;55.10
20358;DHT22;75325;47.812;13.026;2024-03-17T02:36:11;13.50;55.10
20358;DHT22;75325;47.812;13.026;2024-03-17T02:38:38;13.50;55.30
20358;DHT22;75325;47.812;13.026;2024-03-17T02:41:25;13.50;55.30
20358;DHT22;75325;47.812;13.026;2024-03-17T02:43:54;13.50;55.30
20358;DHT22;75325;47.812;13.026;2024-03-17T02:46:21;13.60;55.40
20358;DHT22;75325;47.812;13.026;2024-03-17T02:48:51;13.60;55.30
20358;DHT22;75325;47.812;13.026;2024-03-17T02:51:20;13.60;55.30
20358;DHT22;75325;47.812;13.026;2024-03-17T02:53:49;13.60;55.30
20358;DHT22;75325;47.812;13.026;2024-03-17T02:56:17;13.70;55.30
20358;DHT22;75325;47.812;13.026;2024-03-17T02:58:47;13.70;55.30
20358;DHT22;75325;47.812;13.026;2024-03-17T03:01:15;13.80;55.30
20358;DHT22;75325;47.812;13.026;2024-03-17T03:03:43;13.80;55.30
20358;DHT22;75325;47.812;13.026;2024-03-17T03:06:11;13.80;55.30
20358;DHT22;75325;47.812;13.026;2024-03-17T03:08:39;13.80;55.30
20358;DHT22;75325;47.812;13.026;2024-03-17T03:11:07;13.80;55.30
20358;DHT22;75325;47.812;13.026;2024-03-17T03:13:37;13.30;55.00
20358;DHT22;75325;47.812;13.026;2024-03-17T03:16:08;13.70;55.30
20358;DHT22;75325;47.812;13.026;2024-03-17T03:18:35;13.70;55.40
20358;DHT22;75325;47.812;13.026;2024-03-17T03:21:03;13.70;55.40
20358;DHT22;75325;47.812;13.026;2024-03-17T03:23:30;13.60;55.30
20358;DHT22;75325;47.812;13.026;2024-03-17T03:25:59;13.60;55.40
20358;DHT22;75325;47.812;13.026;2024-03-17T03:28:29;13.50;55.50
20358;DHT22;75325;47.812;13.026;2024-03-17T03:30:57;13.50;55.40
20358;DHT22;75325;47.812;13.026;2024-03-17T03:33:26;13.40;55.50
20358;DHT22;75325;47.812;13.026;2024-03-17T03:35:54;13.30;55.70
20358;DHT22;75325;47.812;13.026;2024-03-17T03:38:22;13.20;55.60
20358;DHT22;75325;47.812;13.026;2024-03-17T03:40:50;13.20;55.70
20358;DHT22;75325;47.812;13.026;2024-03-17T03:43:19;13.10;55.70
20358;DHT22;75325;47.812;13.026;2024-03-17T03:45:47;13.10;55.70
20358;DHT22;75325;47.812;13.026;2024-03-17T03:48:14;13.00;55.80
20358;DHT22;75325;47.812;13.026;2024-03-17T03:50:43;13.00;55.90
20358;DHT22;75325;47.812;13.026;2024-03-17T03:53:10;13.10;56.00
20358;DHT22;75325;47.812;13.026;2024-03-17T03:55:38;13.10;55.90
20358;DHT22;75325;47.812;13.026;2024-03-17T03:58:05;13.10;55.90
20358;DHT22;75325;47.812;13.026;2024-03-17T04:00:32;13.10;56.60
20358;DHT22;75325;47.812;13.026;2024-03-17T04:03:00;13.10;56.00
20358;DHT22;75325;47.812;13.026;2024-03-17T04:05:28;13.10;55.90
20358;DHT22;75325;47.812;13.026;2024-03-17T04:07:57;13.10;55.90
20358;DHT22;75325;47.812;13.026;2024-03-17T04:10:25;13.10;56.00
20358;DHT22;75325;47.812;13.026;2024-03-17T04:12:52;13.10;55.80
20358;DHT22;75325;47.812;13.026;2024-03-17T04:15:20;13.00;55.90
20358;DHT22;75325;47.812;13.026;2024-03-17T04:17:47;13.10;56.00
20358;DHT22;75325;47.812;13.026;2024-03-17T04:20:15;13.00;56.00
20358;DHT22;75325;47.812;13.026;2024-03-17T04:22:42;13.10;56.00
20358;DHT22;75325;47.812;13.026;2024-03-17T04:25:11;13.10;56.00
20358;DHT22;75325;47.812;13.026;2024-03-17T04:27:40;13.10;56.10
20358;DHT22;75325;47.812;13.026;2024-03-17T04:30:07;13.10;56.00
20358;DHT22;75325;47.812;13.026;2024-03-17T04:32:35;13.10;56.00
20358;DHT22;75325;47.812;13.026;2024-03-17T04:35:01;13.10;56.00
20358;DHT22;75325;47.812;13.026;2024-03-17T04:37:28;13.10;57.30
20358;DHT22;75325;47.812;13.026;2024-03-17T04:39:56;13.10;56.10
20358;DHT22;75325;47.812;13.026;2024-03-17T04:42:25;13.10;56.10
20358;DHT22;75325;47.812;13.026;2024-03-17T04:44:52;13.00;56.00
20358;DHT22;75325;47.812;13.026;2024-03-17T04:47:19;13.00;56.10
20358;DHT22;75325;47.812;13.026;2024-03-17T04:49:46;13.00;56.10
20358;DHT22;75325;47.812;13.026;2024-03-17T04:52:14;13.00;56.10
20358;DHT22;75325;47.812;13.026;2024-03-17T04:54:42;13.00;56.10
20358;DHT22;75325;47.812;13.026;2024-03-17T04:57:09;13.00;56.10
20358;DHT22;75325;47.812;13.026;2024-03-17T04:59:38;13.00;56.10
20358;DHT22;75325;47.812;13.026;2024-03-17T05:02:05;13.00;56.10
20358;DHT22;75325;47.812;13.026;2024-03-17T05:04:33;13.00;56.10
20358;DHT22;75325;47.812;13.026;2024-03-17T05:07:00;12.90;56.10
20358;DHT22;75325;47.812;13.026;2024-03-17T05:09:28;12.80;56.10
20358;DHT22;75325;47.812;13.026;2024-03-17T05:11:55;12.70;56.20
20358;DHT22;75325;47.812;13.026;2024-03-17T05:14:22;12.70;56.30
20358;DHT22;75325;47.812;13.026;2024-03-17T05:16:52;12.60;56.40
20358;DHT22;75325;47.812;13.026;2024-03-17T05:19:20;12.70;56.50
20358;DHT22;75325;47.812;13.026;2024-03-17T05:21:47;12.70;57.20
20358;DHT22;75325;47.812;13.026;2024-03-17T05:24:15;12.70;56.40
20358;DHT22;75325;47.812;13.026;2024-03-17T05:26:43;12.80;56.40
20358;DHT22;75325;47.812;13.026;2024-03-17T05:29:11;12.80;56.30
20358;DHT22;75325;47.812;13.026;2024-03-17T05:31:38;12.80;56.40
20358;DHT22;75325;47.812;13.026;2024-03-17T05:34:07;12.80;56.40
20358;DHT22;75325;47.812;13.026;2024-03-17T05:36:36;12.70;56.40
20358;DHT22;75325;47.812;13.026;2024-03-17T05:39:03;12.80;56.50
20358;DHT22;75325;47.812;13.026;2024-03-17T05:41:30;12.80;56.50
20358;DHT22;75325;47.812;13.026;2024-03-17T05:43:58;12.90;56.40
20358;DHT22;75325;47.812;13.026;2024-03-17T05:46:26;12.90;56.30
20358;DHT22;75325;47.812;13.026;2024-03-17T05:48:53;13.00;56.30
20358;DHT22;75325;47.812;13.026;2024-03-17T05:51:22;13.00;56.30
20358;DHT22;75325;47.812;13.026;2024-03-17T05:53:53;13.10;56.30
20358;DHT22;75325;47.812;13.026;2024-03-17T05:56:21;13.20;56.30
20358;DHT22;75325;47.812;13.026;2024-03-17T05:58:50;13.20;56.20
20358;DHT22;75325;47.812;13.026;2024-03-17T06:01:17;13.20;56.20
20358;DHT22;75325;47.812;13.026;2024-03-17T06:03:45;13.30;56.20
20358;DHT22;75325;47.812;13.026;2024-03-17T06:06:13;13.30;56.20
20358;DHT22;75325;47.812;13.026;2024-03-17T06:08:42;13.20;56.10
20358;DHT22;75325;47.812;13.026;2024-03-17T06:11:10;13.30;56.30
20358;DHT22;75325;47.812;13.026;2024-03-17T06:13:38;13.30;56.30
20358;DHT22;75325;47.812;13.026;2024-03-17T06:16:05;13.30;56.20
20358;DHT22;75325;47.812;13.026;2024-03-17T06:18:32;13.30;56.30
20358;DHT22;75325;47.812;13.026;2024-03-17T06:20:59;13.30;56.40
20358;DHT22;75325;47.812;13.026;2024-03-17T06:23:27;13.40;56.40
20358;DHT22;75325;47.812;13.026;2024-03-17T06:25:55;13.50;56.50
20358;DHT22;75325;47.812;13.026;2024-03-17T06:28:23;13.60;56.80
20358;DHT22;75325;47.812;13.026;2024-03-17T06:30:56;13.80;56.30
20358;DHT22;75325;47.812;13.026;2024-03-17T06:33:25;13.80;56.20
20358;DHT22;75325;47.812;13.026;2024-03-17T06:35:54;13.80;56.10
20358;DHT22;75325;47.812;13.026;2024-03-17T06:38:22;13.90;56.20
20358;DHT22;75325;47.812;13.026;2024-03-17T06:40:50;13.90;56.10
20358;DHT22;75325;47.812;13.026;2024-03-17T06:43:19;14.00;56.10
20358;DHT22;75325;47.812;13.026;2024-03-17T06:45:56;14.00;56.00
20358;DHT22;75325;47.812;13.026;2024-03-17T06:48:24;14.00;56.10
20358;DHT22;75325;47.812;13.026;2024-03-17T06:50:52;14.00;56.00
20358;DHT22;75325;47.812;13.026;2024-03-17T06:53:20;14.10;56.10
20358;DHT22;75325;47.812;13.026;2024-03-17T06:55:54;14.20;56.30
20358;DHT22;75325;47.812;13.026;2024-03-17T06:58:23;14.20;56.00
20358;DHT22;75325;47.812;13.026;2024-03-17T07:00:57;14.20;56.00
20358;DHT22;75325;47.812;13.026;2024-03-17T07:03:25;14.20;56.10
20358;DHT22;75325;47.812;13.026;2024-03-17T07:05:53;14.20;56.10
20358;DHT22;75325;47.812;13.026;2024-03-17T07:08:21;14.20;56.60
20358;DHT22;75325;47.812;13.026;2024-03-17T07:10:56;14.20;56.20
20358;DHT22;75325;47.812;13.026;2024-03-17T07:13:25;14.40;56.30
20358;DHT22;75325;47.812;13.026;2024-03-17T07:15:52;14.60;56.30
20358;DHT22;75325;47.812;13.026;2024-03-17T07:18:20;14.80;56.20
20358;DHT22;75325;47.812;13.026;2024-03-17T07:20:47;14.90;55.80
20358;DHT22;75325;47.812;13.026;2024-03-17T07:23:14;15.00;56.00
20358;DHT22;75325;47.812;13.026;2024-03-17T07:25:43;15.10;55.90
20358;DHT22;75325;47.812;13.026;2024-03-17T07:28:18;15.20;55.80
20358;DHT22;75325;47.812;13.026;2024-03-17T07:30:48;15.40;55.70
20358;DHT22;75325;47.812;13.026;2024-03-17T07:33:15;15.40;56.20
20358;DHT22;75325;47.812;13.026;2024-03-17T07:35:50;15.50;55.60
20358;DHT22;75325;47.812;13.026;2024-03-17T07:38:18;15.60;55.60
20358;DHT22;75325;47.812;13.026;2024-03-17T07:40:55;15.60;55.40
20358;DHT22;75325;47.812;13.026;2024-03-17T07:43:23;15.70;55.60
20358;DHT22;75325;47.812;13.026;2024-03-17T07:46:02;15.70;55.50
20358;DHT22;75325;47.812;13.026;2024-03-17T07:48:30;15.80;55.80
20358;DHT22;75325;47.812;13.026;2024-03-17T07:50:59;16.00;55.80
20358;DHT22;75325;47.812;13.026;2024-03-17T07:53:29;16.30;56.50
20358;DHT22;75325;47.812;13.026;2024-03-17T07:55:57;16.70;55.80
20358;DHT22;75325;47.812;13.026;2024-03-17T07:58:26;17.10;55.60
20358;DHT22;75325;47.812;13.026;2024-03-17T08:00:57;17.50;55.20
20358;DHT22;75325;47.812;13.026;2024-03-17T08:03:27;18.00;55.40
20358;DHT22;75325;47.812;13.026;2024-03-17T08:05:54;19.40;55.80
20358;DHT22;75325;47.812;13.026;2024-03-17T08:08:21;20.30;53.40
20358;DHT22;75325;47.812;13.026;2024-03-17T08:10:49;20.90;52.60
20358;DHT22;75325;47.812;13.026;2024-03-17T08:13:18;21.30;51.50
20358;DHT22;75325;47.812;13.026;2024-03-17T08:15:46;21.40;50.80
20358;DHT22;75325;47.812;13.026;2024-03-17T08:18:13;21.60;50.40
20358;DHT22;75325;47.812;13.026;2024-03-17T08:20:43;21.90;50.30
20358;DHT22;75325;47.812;13.026;2024-03-17T08:23:12;22.20;50.00
20358;DHT22;75325;47.812;13.026;2024-03-17T08:25:40;22.80;50.00
20358;DHT22;75325;47.812;13.026;2024-03-17T08:28:07;23.30;49.40
20358;DHT22;75325;47.812;13.026;2024-03-17T08:30:35;23.80;48.70
20358;DHT22;75325;47.812;13.026;2024-03-17T08:33:02;24.40;48.20
20358;DHT22;75325;47.812;13.026;2024-03-17T08:35:29;24.70;47.50
20358;DHT22;75325;47.812;13.026;2024-03-17T08:37:58;25.10;47.30
20358;DHT22;75325;47.812;13.026;2024-03-17T08:40:26;25.80;46.30
20358;DHT22;75325;47.812;13.026;2024-03-17T08:42:54;26.50;45.90
20358;DHT22;75325;47.812;13.026;2024-03-17T08:45:22;27.40;45.70
20358;DHT22;75325;47.812;13.026;2024-03-17T08:47:51;28.40;45.40
20358;DHT22;75325;47.812;13.026;2024-03-17T08:50:19;28.90;43.80
20358;DHT22;75325;47.812;13.026;2024-03-17T08:52:46;29.80;44.00
20358;DHT22;75325;47.812;13.026;2024-03-17T08:55:14;30.70;43.00
20358;DHT22;75325;47.812;13.026;2024-03-17T08:57:42;31.60;42.30
20358;DHT22;75325;47.812;13.026;2024-03-17T09:00:10;32.30;41.50
20358;DHT22;75325;47.812;13.026;2024-03-17T09:02:37;32.80;41.10
20358;DHT22;75325;47.812;13.026;2024-03-17T09:05:07;33.10;40.80
20358;DHT22;75325;47.812;13.026;2024-03-17T09:07:34;33.30;39.50
20358;DHT22;75325;47.812;13.026;2024-03-17T09:10:01;33.30;39.00
20358;DHT22;75325;47.812;13.026;2024-03-17T09:12:30;33.50;39.00
20358;DHT22;75325;47.812;13.026;2024-03-17T09:14:58;34.10;38.80
20358;DHT22;75325;47.812;13.026;2024-03-17T09:17:25;34.60;37.60
20358;DHT22;75325;47.812;13.026;2024-03-17T09:19:52;34.30;36.50
20358;DHT22;75325;47.812;13.026;2024-03-17T09:22:19;33.70;36.20
20358;DHT22;75325;47.812;13.026;2024-03-17T09:24:47;33.00;36.20
20358;DHT22;75325;47.812;13.026;2024-03-17T09:27:14;32.70;37.10
20358;DHT22;75325;47.812;13.026;2024-03-17T09:29:47;33.30;38.10
20358;DHT22;75325;47.812;13.026;2024-03-17T09:32:14;34.20;36.70
20358;DHT22;75325;47.812;13.026;2024-03-17T09:34:46;34.70;35.70
20358;DHT22;75325;47.812;13.026;2024-03-17T09:37:14;34.80;35.10
20358;DHT22;75325;47.812;13.026;2024-03-17T09:39:42;35.40;35.00
20358;DHT22;75325;47.812;13.026;2024-03-17T09:42:16;35.30;33.90
20358;DHT22;75325;47.812;13.026;2024-03-17T09:44:47;34.90;33.60
20358;DHT22;75325;47.812;13.026;2024-03-17T09:47:19;34.90;34.20
20358;DHT22;75325;47.812;13.026;2024-03-17T09:49:47;34.80;34.10
20358;DHT22;75325;47.812;13.026;2024-03-17T09:52:19;34.20;33.40
20358;DHT22;75325;47.812;13.026;2024-03-17T09:54:47;33.90;33.40
20358;DHT22;75325;47.812;13.026;2024-03-17T09:57:17;33.10;33.10
20358;DHT22;75325;47.812;13.026;2024-03-17T09:59:51;31.90;33.10
20358;DHT22;75325;47.812;13.026;2024-03-17T10:02:19;31.30;34.60
20358;DHT22;75325;47.812;13.026;2024-03-17T10:04:47;32.10;35.30
20358;DHT22;75325;47.812;13.026;2024-03-17T10:07:15;32.80;34.40
20358;DHT22;75325;47.812;13.026;2024-03-17T10:09:43;33.20;33.90
20358;DHT22;75325;47.812;13.026;2024-03-17T10:12:27;33.80;33.80
20358;DHT22;75325;47.812;13.026;2024-03-17T10:15:00;34.90;33.20
20358;DHT22;75325;47.812;13.026;2024-03-17T10:17:31;35.10;31.90
20358;DHT22;75325;47.812;13.026;2024-03-17T10:20:13;35.30;32.30
20358;DHT22;75325;47.812;13.026;2024-03-17T10:23:00;36.00;32.20
20358;DHT22;75325;47.812;13.026;2024-03-17T10:25:29;36.90;31.40
20358;DHT22;75325;47.812;13.026;2024-03-17T10:27:56;36.80;30.40
20358;DHT22;75325;47.812;13.026;2024-03-17T10:30:25;36.40;30.30
20358;DHT22;75325;47.812;13.026;2024-03-17T10:32:56;35.10;29.90
20358;DHT22;75325;47.812;13.026;2024-03-17T10:35:32;33.60;30.60
20358;DHT22;75325;47.812;13.026;2024-03-17T10:38:00;33.30;31.90
20358;DHT22;75325;47.812;13.026;2024-03-17T10:40:28;33.90;32.60
20358;DHT22;75325;47.812;13.026;2024-03-17T10:42:57;34.20;31.80
20358;DHT22;75325;47.812;13.026;2024-03-17T10:45:29;34.80;31.20
20358;DHT22;75325;47.812;13.026;2024-03-17T10:47:59;35.10;30.70
20358;DHT22;75325;47.812;13.026;2024-03-17T10:50:30;35.70;30.40
20358;DHT22;75325;47.812;13.026;2024-03-17T10:53:01;35.90;29.60
20358;DHT22;75325;47.812;13.026;2024-03-17T10:55:32;35.30;29.50
20358;DHT22;75325;47.812;13.026;2024-03-17T10:58:08;35.00;29.50
20358;DHT22;75325;47.812;13.026;2024-03-17T11:00:42;33.80;29.60
20358;DHT22;75325;47.812;13.026;2024-03-17T11:03:13;32.90;30.10
20358;DHT22;75325;47.812;13.026;2024-03-17T11:05:41;32.20;30.50
20358;DHT22;75325;47.812;13.026;2024-03-17T11:08:15;31.60;31.00
20358;DHT22;75325;47.812;13.026;2024-03-17T11:10:50;31.60;31.20
20358;DHT22;75325;47.812;13.026;2024-03-17T11:13:23;31.60;30.80
20358;DHT22;75325;47.812;13.026;2024-03-17T11:15:52;31.30;30.80
20358;DHT22;75325;47.812;13.026;2024-03-17T11:18:37;31.00;31.10
20358;DHT22;75325;47.812;13.026;2024-03-17T11:21:18;30.40;31.20
20358;DHT22;75325;47.812;13.026;2024-03-17T11:23:59;29.50;31.40
20358;DHT22;75325;47.812;13.026;2024-03-17T11:26:28;28.00;32.00
20358;DHT22;75325;47.812;13.026;2024-03-17T11:28:56;26.90;33.20
20358;DHT22;75325;47.812;13.026;2024-03-17T11:31:43;25.80;33.80
20358;DHT22;75325;47.812;13.026;2024-03-17T11:34:33;24.80;34.80
20358;DHT22;75325;47.812;13.026;2024-03-17T11:37:02;24.10;35.80
20358;DHT22;75325;47.812;13.026;2024-03-17T11:39:51;23.60;36.40
20358;DHT22;75325;47.812;13.026;2024-03-17T11:42:25;23.10;37.00
20358;DHT22;75325;47.812;13.026;2024-03-17T11:45:00;22.80;37.50
20358;DHT22;75325;47.812;13.026;2024-03-17T11:47:40;22.50;38.00
20358;DHT22;75325;47.812;13.026;2024-03-17T11:50:10;22.40;38.30
20358;DHT22;75325;47.812;13.026;2024-03-17T11:52:39;22.30;38.40
20358;DHT22;75325;47.812;13.026;2024-03-17T11:55:17;22.20;38.40
20358;DHT22;75325;47.812;13.026;2024-03-17T11:57:44;21.90;38.70
20358;DHT22;75325;47.812;13.026;2024-03-17T12:00:30;21.80;38.80
20358;DHT22;75325;47.812;13.026;2024-03-17T12:02:58;21.60;39.00
20358;DHT22;75325;47.812;13.026;2024-03-17T12:05:26;21.60;39.10
20358;DHT22;75325;47.812;13.026;2024-03-17T12:07:53;21.50;39.20
20358;DHT22;75325;47.812;13.026;2024-03-17T12:10:20;21.50;39.30
20358;DHT22;75325;47.812;13.026;2024-03-17T12:12:47;21.60;39.50
20358;DHT22;75325;47.812;13.026;2024-03-17T12:15:17;21.50;39.40
20358;DHT22;75325;47.812;13.026;2024-03-17T12:17:44;21.60;39.50
20358;DHT22;75325;47.812;13.026;2024-03-17T12:20:20;21.70;39.70
20358;DHT22;75325;47.812;13.026;2024-03-17T12:22:47;21.90;39.60
20358;DHT22;75325;47.812;13.026;2024-03-17T12:25:17;22.10;39.70
20358;DHT22;75325;47.812;13.026;2024-03-17T12:27:45;22.30;39.50
20358;DHT22;75325;47.812;13.026;2024-03-17T12:30:13;22.40;39.40
20358;DHT22;75325;47.812;13.026;2024-03-17T12:32:40;22.40;39.30
20358;DHT22;75325;47.812;13.026;2024-03-17T12:35:13;22.50;39.20
20358;DHT22;75325;47.812;13.026;2024-03-17T12:37:43;22.50;39.30
20358;DHT22;75325;47.812;13.026;2024-03-17T12:40:21;22.50;39.20
20358;DHT22;75325;47.812;13.026;2024-03-17T12:42:49;22.50;39.30
20358;DHT22;75325;47.812;13.026;2024-03-17T12:45:22;22.50;39.30
20358;DHT22;75325;47.812;13.026;2024-03-17T12:47:49;22.60;39.50
20358;DHT22;75325;47.812;13.026;2024-03-17T12:50:17;22.80;39.60
20358;DHT22;75325;47.812;13.026;2024-03-17T12:52:54;22.80;39.00
20358;DHT22;75325;47.812;13.026;2024-03-17T12:55:23;22.70;38.90
20358;DHT22;75325;47.812;13.026;2024-03-17T12:58:10;22.70;39.00
20358;DHT22;75325;47.812;13.026;2024-03-17T13:00:59;22.80;39.20
20358;DHT22;75325;47.812;13.026;2024-03-17T13:03:27;23.00;39.30
20358;DHT22;75325;47.812;13.026;2024-03-17T13:05:55;23.10;39.10
20358;DHT22;75325;47.812;13.026;2024-03-17T13:08:24;23.20;39.10
20358;DHT22;75325;47.812;13.026;2024-03-17T13:10:51;23.30;39.00
20358;DHT22;75325;47.812;13.026;2024-03-17T13:13:21;23.30;38.80
20358;DHT22;75325;47.812;13.026;2024-03-17T13:15:48;23.20;38.80
20358;DHT22;75325;47.812;13.026;2024-03-17T13:18:17;23.20;38.80
20358;DHT22;75325;47.812;13.026;2024-03-17T13:20:46;23.10;38.90
20358;DHT22;75325;47.812;13.026;2024-03-17T13:23:16;23.10;39.10
20358;DHT22;75325;47.812;13.026;2024-03-17T13:25:45;23.10;39.00
20358;DHT22;75325;47.812;13.026;2024-03-17T13:28:14;23.00;39.50
20358;DHT22;75325;47.812;13.026;2024-03-17T13:30:41;22.90;39.00
20358;DHT22;75325;47.812;13.026;2024-03-17T13:33:10;22.90;39.10
20358;DHT22;75325;47.812;13.026;2024-03-17T13:35:39;22.80;39.00
20358;DHT22;75325;47.812;13.026;2024-03-17T13:38:07;22.80;39.00
20358;DHT22;75325;47.812;13.026;2024-03-17T13:40:37;22.70;39.00
20358;DHT22;75325;47.812;13.026;2024-03-17T13:43:06;22.70;39.10
20358;DHT22;75325;47.812;13.026;2024-03-17T13:45:39;22.70;39.10
20358;DHT22;75325;47.812;13.026;2024-03-17T13:48:07;22.60;39.70
20358;DHT22;75325;47.812;13.026;2024-03-17T13:50:37;22.50;39.00
20358;DHT22;75325;47.812;13.026;2024-03-17T13:53:05;22.50;39.10
20358;DHT22;75325;47.812;13.026;2024-03-17T13:55:32;22.40;39.20
20358;DHT22;75325;47.812;13.026;2024-03-17T13:58:01;22.30;39.30
20358;DHT22;75325;47.812;13.026;2024-03-17T14:00:32;22.30;40.00
20358;DHT22;75325;47.812;13.026;2024-03-17T14:03:02;22.40;39.50
20358;DHT22;75325;47.812;13.026;2024-03-17T14:05:29;22.40;39.40
20358;DHT22;75325;47.812;13.026;2024-03-17T14:07:58;22.50;39.40
20358;DHT22;75325;47.812;13.026;2024-03-17T14:10:26;22.50;39.40
20358;DHT22;75325;47.812;13.026;2024-03-17T14:12:53;22.50;39.20
20358;DHT22;75325;47.812;13.026;2024-03-17T14:15:20;22.50;39.20
20358;DHT22;75325;47.812;13.026;2024-03-17T14:17:49;22.40;39.30
20358;DHT22;75325;47.812;13.026;2024-03-17T14:20:17;22.50;39.40
20358;DHT22;75325;47.812;13.026;2024-03-17T14:22:46;22.50;39.40
20358;DHT22;75325;47.812;13.026;2024-03-17T14:25:19;22.40;39.30
20358;DHT22;75325;47.812;13.026;2024-03-17T14:27:47;22.40;39.50
20358;DHT22;75325;47.812;13.026;2024-03-17T14:30:17;22.40;39.70
20358;DHT22;75325;47.812;13.026;2024-03-17T14:32:45;22.40;39.40
20358;DHT22;75325;47.812;13.026;2024-03-17T14:35:15;22.50;39.50
20358;DHT22;75325;47.812;13.026;2024-03-17T14:37:43;22.50;39.40
20358;DHT22;75325;47.812;13.026;2024-03-17T14:40:14;22.50;39.30
20358;DHT22;75325;47.812;13.026;2024-03-17T14:42:48;22.50;39.30
20358;DHT22;75325;47.812;13.026;2024-03-17T14:45:15;22.50;39.30
20358;DHT22;75325;47.812;13.026;2024-03-17T14:47:43;22.50;39.40
20358;DHT22;75325;47.812;13.026;2024-03-17T14:50:12;22.50;39.40
20358;DHT22;75325;47.812;13.026;2024-03-17T14:52:40;22.50;39.40
20358;DHT22;75325;47.812;13.026;2024-03-17T14:55:08;22.40;39.40
20358;DHT22;75325;47.812;13.026;2024-03-17T14:57:37;22.50;39.50
20358;DHT22;75325;47.812;13.026;2024-03-17T15:00:07;22.50;39.40
20358;DHT22;75325;47.812;13.026;2024-03-17T15:02:39;22.40;39.30
20358;DHT22;75325;47.812;13.026;2024-03-17T15:05:08;22.40;39.30
20358;DHT22;75325;47.812;13.026;2024-03-17T15:07:35;22.20;39.30
20358;DHT22;75325;47.812;13.026;2024-03-17T15:10:05;22.20;39.50
20358;DHT22;75325;47.812;13.026;2024-03-17T15:12:33;22.20;39.60
20358;DHT22;75325;47.812;13.026;2024-03-17T15:15:00;22.10;39.60
20358;DHT22;75325;47.812;13.026;2024-03-17T15:17:28;22.10;39.70
20358;DHT22;75325;47.812;13.026;2024-03-17T15:19:55;22.20;39.70
20358;DHT22;75325;47.812;13.026;2024-03-17T15:22:22;22.10;39.70
20358;DHT22;75325;47.812;13.026;2024-03-17T15:24:49;22.10;39.70
20358;DHT22;75325;47.812;13.026;2024-03-17T15:27:19;22.10;39.90